createdAt,value
2018-09-15T00:01:34.012Z,12.70
2018-09-15T00:04:03.436Z,12.70
2018-09-15T00:06:33.950Z,12.80
2018-09-15T00:09:03.947Z,12.90
2018-09-15T00:11:33.426Z,12.90
2018-09-15T00:14:02.905Z,13.00
2018-09-15T00:16:32.343Z,13.10
2018-09-15T00:19:01.799Z,13.20
2018-09-15T00:21:31.218Z,13.30
2018-09-15T00:24:00.652Z,13.30
2018-09-15T00:26:30.134Z,13.40
2018-09-15T00:28:59.539Z,13.50
2018-09-15T00:31:29.006Z,13.50
2018-09-15T00:33:58.438Z,13.50
2018-09-15T00:36:27.828Z,13.60
2018-09-15T00:38:57.316Z,13.60
2018-09-15T00:41:26.956Z,13.70
2018-09-15T00:43:56.405Z,13.70
2018-09-15T00:46:25.832Z,13.60
2018-09-15T00:48:55.262Z,13.60
2018-09-15T00:51:24.712Z,13.60
2018-09-15T00:53:54.169Z,13.50
2018-09-15T00:56:23.627Z,13.40
2018-09-15T00:58:53.070Z,13.30
2018-09-15T01:01:22.525Z,13.20
2018-09-15T01:03:51.981Z,13.20
2018-09-15T01:06:21.507Z,13.20
2018-09-15T01:08:50.925Z,13.20
2018-09-15T01:11:20.441Z,13.10
2018-09-15T01:13:49.900Z,13.10
2018-09-15T01:16:19.348Z,13.10
2018-09-15T01:18:48.765Z,13.00
2018-09-15T01:21:18.208Z,13.00
2018-09-15T01:23:47.587Z,13.00
2018-09-15T01:26:17.272Z,13.00
2018-09-15T01:28:49.753Z,13.00
2018-09-15T01:31:20.923Z,13.00
2018-09-15T01:33:50.322Z,13.00
2018-09-15T01:36:19.739Z,13.00
2018-09-15T01:38:49.167Z,13.00
2018-09-15T01:41:18.640Z,13.00
2018-09-15T01:43:48.633Z,12.90
2018-09-15T01:46:18.108Z,13.00
2018-09-15T01:48:47.565Z,12.90
2018-09-15T01:51:17.073Z,12.90
2018-09-15T01:53:46.754Z,12.90
2018-09-15T01:56:16.175Z,12.90
2018-09-15T01:58:45.598Z,12.80
2018-09-15T02:01:15.069Z,12.90
2018-09-15T02:03:44.509Z,12.80
2018-09-15T02:06:13.951Z,12.80
2018-09-15T02:08:43.470Z,12.70
2018-09-15T02:11:12.918Z,12.60
2018-09-15T02:13:42.399Z,12.60
2018-09-15T02:16:11.864Z,12.60
2018-09-15T02:18:41.250Z,12.50
2018-09-15T02:21:10.720Z,12.50
2018-09-15T02:23:40.154Z,12.50
2018-09-15T02:26:10.321Z,12.40
2018-09-15T02:28:40.013Z,12.50
2018-09-15T02:31:09.493Z,12.50
2018-09-15T02:33:38.897Z,12.40
2018-09-15T02:36:08.340Z,12.40
2018-09-15T02:38:37.787Z,12.40
2018-09-15T02:41:07.250Z,12.40
2018-09-15T02:43:36.674Z,12.30
2018-09-15T02:46:06.177Z,12.30
2018-09-15T02:48:35.612Z,12.20
2018-09-15T02:51:05.100Z,12.20
2018-09-15T02:53:34.555Z,12.20
2018-09-15T02:56:04.036Z,12.10
2018-09-15T02:58:33.809Z,12.10
2018-09-15T03:01:03.222Z,12.00
2018-09-15T03:03:32.714Z,12.10
2018-09-15T03:06:02.190Z,12.10
2018-09-15T03:08:31.647Z,12.10
2018-09-15T03:11:01.082Z,12.10
2018-09-15T03:13:30.569Z,12.10
2018-09-15T03:15:59.984Z,12.10
2018-09-15T03:18:29.917Z,12.10
2018-09-15T03:20:59.321Z,12.10
2018-09-15T03:23:28.732Z,12.10
2018-09-15T03:25:58.210Z,12.20
2018-09-15T03:28:27.651Z,12.20
2018-09-15T03:30:57.074Z,12.20
2018-09-15T03:33:26.497Z,12.20
2018-09-15T03:35:55.953Z,12.30
2018-09-15T03:38:25.397Z,12.20
2018-09-15T03:40:54.821Z,12.20
2018-09-15T03:43:24.214Z,12.20
2018-09-15T03:45:53.629Z,12.20
2018-09-15T03:48:23.248Z,12.20
2018-09-15T03:50:52.675Z,12.20
2018-09-15T03:53:22.091Z,12.20
2018-09-15T03:55:51.964Z,12.30
2018-09-15T03:58:21.348Z,12.20
2018-09-15T04:00:52.688Z,12.20
2018-09-15T04:03:22.714Z,12.20
2018-09-15T04:05:52.135Z,12.20
2018-09-15T04:08:21.792Z,12.20
2018-09-15T04:10:51.275Z,12.20
2018-09-15T04:13:20.690Z,12.20
2018-09-15T04:15:50.153Z,12.30
2018-09-15T04:18:19.566Z,12.30
2018-09-15T04:20:49.372Z,12.30
2018-09-15T04:23:18.789Z,12.40
2018-09-15T04:25:48.193Z,12.50
2018-09-15T04:28:17.634Z,12.50
2018-09-15T04:30:46.961Z,12.60
2018-09-15T04:33:16.420Z,12.60
2018-09-15T04:35:45.833Z,12.70
2018-09-15T04:38:15.235Z,12.80
2018-09-15T04:40:44.637Z,12.80
2018-09-15T04:43:14.039Z,12.90
2018-09-15T04:45:43.457Z,12.90
2018-09-15T04:48:12.918Z,13.00
2018-09-15T04:50:42.310Z,13.00
2018-09-15T04:53:11.977Z,13.00
2018-09-15T04:55:41.380Z,13.00
2018-09-15T04:58:10.734Z,13.00
2018-09-15T05:00:40.249Z,13.00
2018-09-15T05:03:10.060Z,13.00
2018-09-15T05:05:39.436Z,13.00
2018-09-15T05:08:09.115Z,13.00
2018-09-15T05:10:38.508Z,12.90
2018-09-15T05:13:08.027Z,12.90
2018-09-15T05:15:37.727Z,12.80
2018-09-15T05:18:07.094Z,12.80
2018-09-15T05:20:36.509Z,12.70
2018-09-15T05:23:06.341Z,12.70
2018-09-15T05:25:35.786Z,12.70
2018-09-15T05:28:05.263Z,12.70
2018-09-15T05:30:34.676Z,12.70
2018-09-15T05:33:04.098Z,12.70
2018-09-15T05:35:33.548Z,12.80
2018-09-15T05:38:02.933Z,12.90
2018-09-15T05:40:32.349Z,13.00
2018-09-15T05:43:01.805Z,13.00
2018-09-15T05:45:31.235Z,13.00
2018-09-15T05:48:00.730Z,13.10
2018-09-15T05:50:30.202Z,13.20
2018-09-15T05:52:59.619Z,13.20
2018-09-15T05:55:29.119Z,13.20
2018-09-15T05:57:58.972Z,13.30
2018-09-15T06:00:28.454Z,13.30
2018-09-15T06:02:57.885Z,13.30
2018-09-15T06:05:27.320Z,13.40
2018-09-15T06:07:56.760Z,13.30
2018-09-15T06:10:26.188Z,13.30
2018-09-15T06:12:55.660Z,13.30
2018-09-15T06:15:25.054Z,13.50
2018-09-15T06:17:54.468Z,13.70
2018-09-15T06:20:23.957Z,13.70
2018-09-15T06:22:53.360Z,13.80
2018-09-15T06:25:22.783Z,13.90
2018-09-15T06:27:52.149Z,14.00
2018-09-15T06:30:21.600Z,14.00
2018-09-15T06:32:51.032Z,14.00
2018-09-15T06:35:20.510Z,13.90
2018-09-15T06:37:50.010Z,13.90
2018-09-15T06:40:19.461Z,14.00
2018-09-15T06:42:48.864Z,14.00
2018-09-15T06:45:18.415Z,14.10
2018-09-15T06:47:47.796Z,14.10
2018-09-15T06:50:17.215Z,14.20
2018-09-15T06:52:46.920Z,14.40
2018-09-15T06:55:16.390Z,14.40
2018-09-15T06:57:45.820Z,14.40
2018-09-15T07:00:15.262Z,14.40
2018-09-15T07:02:44.712Z,14.50
2018-09-15T07:05:14.138Z,14.50
2018-09-15T07:07:43.538Z,14.50
2018-09-15T07:10:12.980Z,14.60
2018-09-15T07:12:42.429Z,14.50
2018-09-15T07:15:11.816Z,14.60
2018-09-15T07:17:41.232Z,14.60
2018-09-15T07:20:10.682Z,14.70
2018-09-15T07:22:40.103Z,15.00
2018-09-15T07:25:09.608Z,15.20
2018-09-15T07:27:39.012Z,15.40
2018-09-15T07:30:08.464Z,15.60
2018-09-15T07:32:37.907Z,15.90
2018-09-15T07:35:07.374Z,16.10
2018-09-15T07:37:36.902Z,16.00
2018-09-15T07:40:06.417Z,15.90
2018-09-15T07:42:35.890Z,15.90
2018-09-15T07:45:05.505Z,16.00
2018-09-15T07:47:34.980Z,15.90
2018-09-15T07:50:04.465Z,15.90
2018-09-15T07:52:33.857Z,15.90
2018-09-15T07:55:03.326Z,16.10
2018-09-15T07:57:32.807Z,16.20
2018-09-15T08:00:02.599Z,16.30
2018-09-15T08:02:31.997Z,16.50
2018-09-15T08:05:01.430Z,16.60
2018-09-15T08:07:30.835Z,16.80
2018-09-15T08:10:00.308Z,16.90
2018-09-15T08:12:29.701Z,17.00
2018-09-15T08:14:59.143Z,17.20
2018-09-15T08:17:28.566Z,17.40
2018-09-15T08:19:57.984Z,17.60
2018-09-15T08:22:27.376Z,17.70
2018-09-15T08:24:56.759Z,17.90
2018-09-15T08:27:26.201Z,18.20
2018-09-15T08:29:55.550Z,18.20
2018-09-15T08:32:25.004Z,18.30
2018-09-15T08:34:54.425Z,18.40
2018-09-15T08:37:23.881Z,18.60
2018-09-15T08:39:53.284Z,18.70
2018-09-15T08:42:22.730Z,18.60
2018-09-15T08:44:52.435Z,18.70
2018-09-15T08:47:21.891Z,18.60
2018-09-15T08:49:51.221Z,18.70
2018-09-15T08:52:20.660Z,18.80
2018-09-15T08:54:50.029Z,19.10
2018-09-15T08:57:19.465Z,19.10
2018-09-15T08:59:49.023Z,19.00
2018-09-15T09:02:18.419Z,18.80
2018-09-15T09:04:47.776Z,18.80
2018-09-15T09:07:17.221Z,19.00
2018-09-15T09:09:46.715Z,19.30
2018-09-15T09:12:16.569Z,19.60
2018-09-15T09:14:46.067Z,19.90
2018-09-15T09:17:15.487Z,20.40
2018-09-15T09:19:44.945Z,20.50
2018-09-15T09:22:14.364Z,20.60
2018-09-15T09:24:43.786Z,20.60
2018-09-15T09:27:13.210Z,20.80
2018-09-15T09:29:42.626Z,20.80
2018-09-15T09:32:12.084Z,20.70
2018-09-15T09:34:41.739Z,20.00
2018-09-15T09:37:11.186Z,19.60
2018-09-15T09:39:40.620Z,19.30
2018-09-15T09:42:10.168Z,18.80
2018-09-15T09:44:39.603Z,18.60
2018-09-15T09:47:08.998Z,18.10
2018-09-15T09:49:38.399Z,17.80
2018-09-15T09:52:07.909Z,17.70
2018-09-15T09:54:37.281Z,17.70
2018-09-15T09:57:06.791Z,17.70
2018-09-15T09:59:36.653Z,17.70
2018-09-15T10:02:11.466Z,17.70
2018-09-15T10:04:40.883Z,17.60
2018-09-15T10:07:11.143Z,17.60
2018-09-15T10:09:40.507Z,17.60
2018-09-15T10:12:09.958Z,17.90
2018-09-15T10:14:39.406Z,18.40
2018-09-15T10:17:08.885Z,18.80
2018-09-15T10:19:38.347Z,19.10
2018-09-15T10:22:08.895Z,19.30
2018-09-15T10:24:38.596Z,19.50
2018-09-15T10:27:08.026Z,19.80
2018-09-15T10:29:37.482Z,20.00
2018-09-15T10:32:07.011Z,20.30
2018-09-15T10:34:36.443Z,20.60
2018-09-15T10:37:05.899Z,21.00
2018-09-15T10:39:35.393Z,20.60
2018-09-15T10:42:04.911Z,20.00
2018-09-15T10:44:34.344Z,20.00
2018-09-15T10:47:03.765Z,20.30
2018-09-15T10:49:33.144Z,20.30
2018-09-15T10:52:02.541Z,20.00
2018-09-15T10:54:32.054Z,19.90
2018-09-15T10:57:01.473Z,19.60
2018-09-15T10:59:30.904Z,19.60
2018-09-15T11:02:00.318Z,19.60
2018-09-15T11:04:29.793Z,19.60
2018-09-15T11:06:59.183Z,19.60
2018-09-15T11:09:28.630Z,19.60
2018-09-15T11:11:58.093Z,19.60
2018-09-15T11:14:27.529Z,19.60
2018-09-15T11:16:56.960Z,19.80
2018-09-15T11:19:26.429Z,20.10
2018-09-15T11:21:55.863Z,20.40
2018-09-15T11:24:25.308Z,20.60
2018-09-15T11:26:54.724Z,20.80
2018-09-15T11:29:24.160Z,20.90
2018-09-15T11:31:53.600Z,20.90
2018-09-15T11:34:22.977Z,20.90
2018-09-15T11:36:52.533Z,21.00
2018-09-15T11:39:21.930Z,21.10
2018-09-15T11:41:51.325Z,20.80
2018-09-15T11:44:20.749Z,20.90
2018-09-15T11:46:50.115Z,20.90
2018-09-15T11:49:19.555Z,20.90
2018-09-15T11:51:48.962Z,20.70
2018-09-15T11:54:18.402Z,20.50
2018-09-15T11:56:47.825Z,20.20
2018-09-15T11:59:17.288Z,19.80
2018-09-15T12:01:46.706Z,19.60
2018-09-15T12:04:16.083Z,19.50
2018-09-15T12:06:45.478Z,19.40
2018-09-15T12:09:14.895Z,19.30
2018-09-15T12:11:44.364Z,19.20
2018-09-15T12:14:13.797Z,19.10
2018-09-15T12:16:43.314Z,19.20
2018-09-15T12:19:12.709Z,19.50
2018-09-15T12:21:42.151Z,19.70
2018-09-15T12:24:11.548Z,19.90
2018-09-15T12:26:40.993Z,20.30
2018-09-15T12:29:10.489Z,20.60
2018-09-15T12:31:39.842Z,20.60
2018-09-15T12:34:09.213Z,20.50
2018-09-15T12:36:38.602Z,20.60
2018-09-15T12:39:08.746Z,20.60
2018-09-15T12:41:38.183Z,20.60
2018-09-15T12:44:07.621Z,20.70
2018-09-15T12:46:37.035Z,20.70
2018-09-15T12:49:06.696Z,20.80
2018-09-15T12:51:36.096Z,20.80
2018-09-15T12:54:05.921Z,20.70
2018-09-15T12:56:35.355Z,20.50
2018-09-15T12:59:04.779Z,20.40
2018-09-15T13:01:34.226Z,20.20
2018-09-15T13:04:03.649Z,20.00
2018-09-15T13:06:33.209Z,19.80
2018-09-15T13:09:02.645Z,19.70
2018-09-15T13:11:32.088Z,19.60
2018-09-15T13:14:01.581Z,19.40
2018-09-15T13:16:30.979Z,19.30
2018-09-15T13:19:00.584Z,19.30
2018-09-15T13:21:30.135Z,19.30
2018-09-15T13:23:59.553Z,19.10
2018-09-15T13:26:29.176Z,19.10
2018-09-15T13:28:58.729Z,19.20
2018-09-15T13:31:28.287Z,19.20
2018-09-15T13:33:57.969Z,19.30
2018-09-15T13:36:27.807Z,19.60
2018-09-15T13:38:57.369Z,19.90
2018-09-15T13:41:27.010Z,19.90
2018-09-15T13:44:03.310Z,20.10
2018-09-15T13:46:32.757Z,20.30
2018-09-15T13:49:02.621Z,20.50
2018-09-15T13:51:32.049Z,20.70
2018-09-15T13:54:01.444Z,20.70
2018-09-15T13:56:30.804Z,21.00
2018-09-15T13:59:00.314Z,21.40
2018-09-15T14:01:29.640Z,21.60
2018-09-15T14:03:59.045Z,21.80
2018-09-15T14:06:28.530Z,22.00
2018-09-15T14:08:58.081Z,22.00
2018-09-15T14:11:27.441Z,22.20
2018-09-15T14:13:56.855Z,22.10
2018-09-15T14:16:26.307Z,22.00
2018-09-15T14:18:55.649Z,21.60
2018-09-15T14:21:25.069Z,21.30
2018-09-15T14:23:54.522Z,21.30
2018-09-15T14:26:23.874Z,21.20
2018-09-15T14:28:53.198Z,21.30
2018-09-15T14:31:22.625Z,21.60
2018-09-15T14:33:52.012Z,22.00
2018-09-15T14:36:21.405Z,21.90
2018-09-15T14:38:50.908Z,21.90
2018-09-15T14:41:20.253Z,21.90
2018-09-15T14:43:49.661Z,21.50
2018-09-15T14:46:19.076Z,21.20
2018-09-15T14:48:49.952Z,20.90
2018-09-15T14:51:19.464Z,20.80
2018-09-15T14:53:48.848Z,20.90
2018-09-15T14:56:18.272Z,20.80
2018-09-15T14:58:47.651Z,20.90
2018-09-15T15:01:17.067Z,21.00
2018-09-15T15:03:46.430Z,20.90
2018-09-15T15:06:15.804Z,21.00
2018-09-15T15:08:45.207Z,21.00
2018-09-15T15:11:14.656Z,21.00
2018-09-15T15:13:44.086Z,21.10
2018-09-15T15:16:13.869Z,21.30
2018-09-15T15:18:43.329Z,21.30
2018-09-15T15:21:12.702Z,21.10
2018-09-15T15:23:42.108Z,20.90
2018-09-15T15:26:11.543Z,20.70
2018-09-15T15:28:40.902Z,20.60
2018-09-15T15:31:10.352Z,20.60
2018-09-15T15:33:39.702Z,20.70
2018-09-15T15:36:09.110Z,20.60
2018-09-15T15:38:38.483Z,20.50
2018-09-15T15:41:07.938Z,20.50
2018-09-15T15:43:37.431Z,20.40
2018-09-15T15:46:06.856Z,20.20
2018-09-15T15:48:36.276Z,20.10
2018-09-15T15:51:05.696Z,20.00
2018-09-15T15:53:35.121Z,19.90
2018-09-15T15:56:04.641Z,19.80
2018-09-15T15:58:34.152Z,19.70
2018-09-15T16:01:03.557Z,19.60
2018-09-15T16:03:33.005Z,19.60
2018-09-15T16:06:02.416Z,19.60
2018-09-15T16:08:31.848Z,19.50
2018-09-15T16:11:01.269Z,19.50
2018-09-15T16:13:30.713Z,19.40
2018-09-15T16:16:00.132Z,19.30
2018-09-15T16:18:29.535Z,19.20
2018-09-15T16:20:58.942Z,19.10
2018-09-15T16:23:28.371Z,19.10
2018-09-15T16:25:57.752Z,19.00
2018-09-15T16:28:27.214Z,19.00
2018-09-15T16:30:56.879Z,19.00
2018-09-15T16:33:26.268Z,19.00
2018-09-15T16:35:55.698Z,18.90
2018-09-15T16:38:25.163Z,18.90
2018-09-15T16:40:54.554Z,18.80
2018-09-15T16:43:24.068Z,18.80
2018-09-15T16:45:53.515Z,18.70
2018-09-15T16:48:22.903Z,18.70
2018-09-15T16:50:52.294Z,18.60
2018-09-15T16:53:21.769Z,18.60
2018-09-15T16:55:51.228Z,18.50
2018-09-15T16:58:20.608Z,18.50
2018-09-15T17:00:53.472Z,18.50
2018-09-15T17:03:26.055Z,18.50
2018-09-15T17:05:57.361Z,18.50
2018-09-15T17:08:27.922Z,18.40
2018-09-15T17:10:57.506Z,18.40
2018-09-15T17:13:31.275Z,18.30
2018-09-15T17:16:00.742Z,18.30
2018-09-15T17:18:30.176Z,18.30
2018-09-15T17:20:59.600Z,18.30
2018-09-15T17:23:29.030Z,18.20
2018-09-15T17:25:58.576Z,18.10
2018-09-15T17:28:28.382Z,18.10
2018-09-15T17:30:57.874Z,18.00
2018-09-15T17:33:27.262Z,18.00
2018-09-15T17:35:56.849Z,17.90
2018-09-15T17:38:26.215Z,17.80
2018-09-15T17:40:55.596Z,17.70
2018-09-15T17:43:25.008Z,17.70
2018-09-15T17:45:54.517Z,17.60
2018-09-15T17:48:23.873Z,17.50
2018-09-15T17:50:53.291Z,17.50
2018-09-15T17:53:22.729Z,17.40
2018-09-15T17:55:52.098Z,17.40
2018-09-15T17:58:21.471Z,17.30
2018-09-15T18:00:51.392Z,17.20
2018-09-15T18:03:20.857Z,17.20
2018-09-15T18:05:50.263Z,17.10
2018-09-15T18:08:19.672Z,17.10
2018-09-15T18:10:49.087Z,17.10
2018-09-15T18:13:18.510Z,17.00
2018-09-15T18:15:52.665Z,16.90
2018-09-15T18:18:22.508Z,16.90
2018-09-15T18:20:51.944Z,16.80
2018-09-15T18:23:24.319Z,16.70
2018-09-15T18:25:54.269Z,16.60
2018-09-15T18:28:24.260Z,16.40
2018-09-15T18:30:53.781Z,16.30
2018-09-15T18:33:23.180Z,16.30
2018-09-15T18:35:52.804Z,16.20
2018-09-15T18:38:22.949Z,16.20
2018-09-15T18:40:53.289Z,16.10
2018-09-15T18:43:22.746Z,16.00
2018-09-15T18:45:52.192Z,16.00
2018-09-15T18:48:22.001Z,15.90
2018-09-15T18:50:51.786Z,15.80
2018-09-15T18:53:22.023Z,15.80
2018-09-15T18:55:52.640Z,15.80
2018-09-15T18:58:23.163Z,15.70
2018-09-15T19:00:53.377Z,15.60
2018-09-15T19:03:23.256Z,15.60
2018-09-15T19:05:53.953Z,15.60
2018-09-15T19:08:24.471Z,15.50
2018-09-15T19:10:53.887Z,15.50
2018-09-15T19:13:24.019Z,15.40
2018-09-15T19:15:53.704Z,15.30
2018-09-15T19:18:23.638Z,15.30
2018-09-15T19:20:53.854Z,15.20
2018-09-15T19:23:24.018Z,15.10
2018-09-15T19:25:54.770Z,15.00
2018-09-15T19:28:24.299Z,14.90
2018-09-15T19:30:54.557Z,14.90
2018-09-15T19:33:23.996Z,14.80
2018-09-15T19:35:53.386Z,14.70
2018-09-15T19:38:22.847Z,14.60
2018-09-15T19:40:52.244Z,14.50
2018-09-15T19:43:21.612Z,14.40
2018-09-15T19:45:51.020Z,14.30
2018-09-15T19:48:20.506Z,14.30
2018-09-15T19:50:49.936Z,14.20
2018-09-15T19:53:19.404Z,14.20
2018-09-15T19:55:48.827Z,14.20
2018-09-15T19:58:18.222Z,14.10
2018-09-15T20:00:47.704Z,14.10
2018-09-15T20:03:17.130Z,14.00
2018-09-15T20:05:46.550Z,14.00
2018-09-15T20:08:15.937Z,14.00
2018-09-15T20:10:45.401Z,13.90
2018-09-15T20:13:14.816Z,13.80
2018-09-15T20:15:43.184Z,13.80
2018-09-15T20:18:11.386Z,13.70
2018-09-15T20:20:39.595Z,13.70
2018-09-15T20:23:09.019Z,13.70
2018-09-15T20:25:38.417Z,13.60
2018-09-15T20:28:07.801Z,13.60
2018-09-15T20:30:37.414Z,13.50
2018-09-15T20:33:06.986Z,13.50
2018-09-15T20:35:36.269Z,13.70
2018-09-15T20:38:05.799Z,13.60
2018-09-15T20:40:35.224Z,13.60
2018-09-15T20:43:04.614Z,13.40
2018-09-15T20:45:34.035Z,13.40
2018-09-15T20:48:03.443Z,13.30
2018-09-15T20:50:32.803Z,13.20
2018-09-15T20:53:02.230Z,13.20
2018-09-15T20:55:31.677Z,13.10
2018-09-15T20:58:01.069Z,13.10
2018-09-15T21:00:30.738Z,13.10
2018-09-15T21:03:00.134Z,13.00
2018-09-15T21:05:29.512Z,12.90
2018-09-15T21:07:58.920Z,12.90
2018-09-15T21:10:28.395Z,12.90
2018-09-15T21:12:57.798Z,12.80
2018-09-15T21:15:27.145Z,12.80
2018-09-15T21:17:56.671Z,12.80
2018-09-15T21:20:26.172Z,12.80
2018-09-15T21:22:55.583Z,12.90
2018-09-15T21:25:24.980Z,12.90
2018-09-15T21:27:54.361Z,12.90
2018-09-15T21:30:25.140Z,12.90
2018-09-15T21:32:54.753Z,12.90
2018-09-15T21:35:24.167Z,12.90
2018-09-15T21:37:53.635Z,12.90
2018-09-15T21:40:23.021Z,12.90
2018-09-15T21:42:52.506Z,12.90
2018-09-15T21:45:21.974Z,12.80
2018-09-15T21:47:51.460Z,12.80
2018-09-15T21:50:20.884Z,12.80
2018-09-15T21:52:50.286Z,12.70
2018-09-15T21:55:19.706Z,12.70
2018-09-15T21:57:49.060Z,12.70
2018-09-15T22:00:18.547Z,12.60
2018-09-15T22:02:47.920Z,12.60
2018-09-15T22:05:17.362Z,12.60
2018-09-15T22:07:46.763Z,12.50
2018-09-15T22:10:16.178Z,12.40
2018-09-15T22:12:45.657Z,12.40
2018-09-15T22:15:21.434Z,12.30
2018-09-15T22:17:50.854Z,12.30
2018-09-15T22:20:20.481Z,12.20
2018-09-15T22:22:49.874Z,12.20
2018-09-15T22:25:19.499Z,12.10
2018-09-15T22:27:49.243Z,12.10
2018-09-15T22:30:18.841Z,12.10
2018-09-15T22:32:48.268Z,12.00
2018-09-15T22:35:17.678Z,12.00
2018-09-15T22:37:47.090Z,12.00
2018-09-15T22:40:16.561Z,11.90
2018-09-15T22:42:46.186Z,11.90
2018-09-15T22:45:15.578Z,11.90
2018-09-15T22:47:44.967Z,11.90
2018-09-15T22:50:14.361Z,11.80
2018-09-15T22:52:43.823Z,11.80
2018-09-15T22:55:13.239Z,11.80
2018-09-15T22:57:42.641Z,11.80
2018-09-15T23:00:12.078Z,11.80
2018-09-15T23:02:41.451Z,11.80
2018-09-15T23:05:10.844Z,11.80
2018-09-15T23:07:40.227Z,11.90
2018-09-15T23:10:09.713Z,11.90
2018-09-15T23:12:39.254Z,11.90
2018-09-15T23:15:08.704Z,11.80
2018-09-15T23:17:38.109Z,11.80
2018-09-15T23:20:07.619Z,11.80
2018-09-15T23:22:37.015Z,11.70
2018-09-15T23:25:06.466Z,11.70
2018-09-15T23:27:35.899Z,11.60
2018-09-15T23:30:05.535Z,11.70
2018-09-15T23:32:34.985Z,11.70
2018-09-15T23:35:04.597Z,11.60
2018-09-15T23:37:34.046Z,11.60
2018-09-15T23:40:03.481Z,11.60
2018-09-15T23:42:32.912Z,11.70
2018-09-15T23:45:02.341Z,11.70
2018-09-15T23:47:31.705Z,11.70
2018-09-15T23:50:01.092Z,11.60
2018-09-15T23:52:30.498Z,11.60
2018-09-15T23:54:59.930Z,11.50
2018-09-15T23:57:29.655Z,11.50
2018-09-15T23:59:59.088Z,11.50
